createdAt,value
2018-12-09T00:03:50.241Z,88.73
2018-12-09T00:08:46.365Z,89.08
2018-12-09T00:13:42.388Z,90.19
2018-12-09T00:18:38.482Z,89.61
2018-12-09T00:23:34.592Z,89.28
2018-12-09T00:28:30.694Z,89.59
2018-12-09T00:33:26.711Z,88.76
2018-12-09T00:38:22.745Z,89.44
2018-12-09T00:43:18.768Z,88.74
2018-12-09T00:48:14.774Z,88.37
2018-12-09T00:53:10.865Z,88.18
2018-12-09T00:58:06.891Z,88.27
2018-12-09T01:03:03.238Z,88.40
2018-12-09T01:07:59.284Z,88.54
2018-12-09T01:12:55.413Z,88.82
2018-12-09T01:17:51.585Z,90.02
2018-12-09T01:22:47.615Z,90.13
2018-12-09T01:27:43.686Z,89.28
2018-12-09T01:32:40.359Z,88.90
2018-12-09T01:37:36.404Z,89.01
2018-12-09T01:42:32.474Z,89.76
2018-12-09T01:47:28.510Z,90.25
2018-12-09T01:52:24.555Z,90.92
2018-12-09T01:57:20.585Z,90.24
2018-12-09T02:02:16.666Z,89.74
2018-12-09T02:07:12.661Z,89.20
2018-12-09T02:12:08.722Z,88.98
2018-12-09T02:17:04.890Z,89.21
2018-12-09T02:22:00.953Z,89.90
2018-12-09T02:26:57.001Z,90.96
2018-12-09T02:31:53.045Z,91.03
2018-12-09T02:36:49.491Z,90.58
2018-12-09T02:41:45.586Z,90.84
2018-12-09T02:46:41.630Z,89.41
2018-12-09T02:51:37.665Z,88.65
2018-12-09T02:56:33.709Z,89.48
2018-12-09T03:01:29.741Z,89.85
2018-12-09T03:06:25.768Z,89.52
2018-12-09T03:11:22.142Z,89.86
2018-12-09T03:16:18.202Z,89.28
2018-12-09T03:21:14.242Z,90.05
2018-12-09T03:26:10.374Z,89.75
2018-12-09T03:31:16.146Z,89.63
2018-12-09T03:36:12.272Z,89.51
2018-12-09T03:41:08.293Z,89.13
2018-12-09T03:46:04.460Z,88.89
2018-12-09T03:51:00.494Z,88.14
2018-12-09T03:55:56.509Z,88.46
2018-12-09T04:00:52.527Z,89.20
2018-12-09T04:05:48.622Z,88.83
2018-12-09T04:10:44.655Z,88.68
2018-12-09T04:15:41.107Z,88.92
2018-12-09T04:20:37.524Z,88.99
2018-12-09T04:25:33.591Z,89.19
2018-12-09T04:30:29.637Z,89.78
2018-12-09T04:35:25.660Z,88.23
2018-12-09T04:40:21.698Z,86.75
2018-12-09T04:45:17.731Z,86.38
2018-12-09T04:50:13.781Z,87.04
2018-12-09T04:55:10.553Z,84.72
2018-12-09T05:00:18.856Z,85.08
2018-12-09T05:05:14.898Z,86.07
2018-12-09T05:10:10.929Z,87.29
2018-12-09T05:15:06.967Z,88.19
2018-12-09T05:20:03.092Z,87.62
2018-12-09T05:24:59.915Z,87.49
2018-12-09T05:29:56.198Z,87.61
2018-12-09T05:34:52.215Z,87.29
2018-12-09T05:39:48.234Z,87.48
2018-12-09T05:44:44.265Z,87.92
2018-12-09T05:49:40.289Z,88.14
2018-12-09T05:54:37.590Z,88.37
2018-12-09T05:59:33.685Z,88.07
2018-12-09T06:04:29.705Z,88.47
2018-12-09T06:09:25.814Z,87.14
2018-12-09T06:14:21.823Z,87.41
2018-12-09T06:19:18.041Z,89.65
2018-12-09T06:24:21.321Z,91.00
2018-12-09T06:29:17.543Z,91.71
2018-12-09T06:34:13.590Z,92.03
2018-12-09T06:39:09.661Z,91.46
2018-12-09T06:44:05.772Z,90.91
2018-12-09T06:49:01.818Z,91.25
2018-12-09T06:54:00.283Z,91.99
2018-12-09T07:04:01.126Z,92.94
2018-12-09T07:08:57.529Z,93.29
2018-12-09T07:13:54.029Z,92.57
2018-12-09T07:18:51.303Z,92.04
2018-12-09T07:23:47.913Z,91.58
2018-12-09T07:28:44.539Z,90.63
2018-12-09T07:33:42.189Z,90.90
2018-12-09T07:38:38.317Z,91.61
2018-12-09T07:43:35.596Z,92.01
2018-12-09T07:48:31.741Z,92.06
2018-12-09T07:53:27.919Z,92.16
2018-12-09T07:58:27.263Z,91.44
2018-12-09T08:03:29.728Z,91.44
2018-12-09T08:08:25.766Z,90.36
2018-12-09T08:13:21.829Z,90.34
2018-12-09T08:18:17.918Z,90.71
2018-12-09T08:23:14.225Z,90.71
2018-12-09T08:28:10.328Z,89.78
2018-12-09T08:33:06.369Z,89.53
2018-12-09T08:38:02.420Z,89.91
2018-12-09T08:42:58.445Z,88.37
2018-12-09T08:47:54.621Z,88.49
2018-12-09T08:52:50.651Z,89.71
2018-12-09T08:57:46.691Z,89.93
2018-12-09T09:02:42.767Z,88.44
2018-12-09T09:07:38.822Z,88.76
2018-12-09T09:12:34.854Z,90.47
2018-12-09T09:17:30.880Z,90.96
2018-12-09T09:22:26.933Z,90.02
2018-12-09T09:27:23.048Z,89.99
2018-12-09T09:32:19.095Z,90.10
2018-12-09T09:37:15.204Z,89.86
2018-12-09T09:42:11.238Z,88.92
2018-12-09T09:47:07.295Z,89.08
2018-12-09T09:52:03.626Z,88.35
2018-12-09T09:56:59.694Z,88.70
2018-12-09T10:01:55.757Z,88.99
2018-12-09T10:06:51.808Z,88.44
2018-12-09T10:11:47.864Z,88.45
2018-12-09T10:16:43.919Z,86.74
2018-12-09T10:21:39.962Z,87.31
2018-12-09T10:26:36.552Z,87.10
2018-12-09T10:31:32.830Z,86.47
2018-12-09T10:36:28.946Z,86.93
2018-12-09T10:41:25.071Z,86.52
2018-12-09T10:46:21.908Z,86.45
2018-12-09T10:51:18.177Z,86.93
2018-12-09T10:56:14.282Z,86.67
2018-12-09T11:01:16.330Z,85.85
2018-12-09T11:06:12.510Z,85.80
2018-12-09T11:11:08.568Z,86.61
2018-12-09T11:16:05.236Z,86.20
2018-12-09T11:21:01.733Z,86.71
2018-12-09T11:25:57.852Z,86.05
2018-12-09T11:30:53.902Z,86.63
2018-12-09T11:35:50.036Z,85.67
2018-12-09T11:40:46.168Z,85.06
2018-12-09T11:45:42.207Z,85.52
2018-12-09T11:50:38.349Z,86.58
2018-12-09T11:55:34.402Z,85.68
2018-12-09T12:00:30.563Z,86.06
2018-12-09T12:05:26.733Z,86.23
2018-12-09T12:10:22.782Z,85.62
2018-12-09T12:15:18.855Z,85.33
2018-12-09T12:20:14.887Z,84.89
2018-12-09T12:25:13.083Z,85.36
2018-12-09T12:30:09.204Z,85.07
2018-12-09T12:35:05.351Z,83.82
2018-12-09T12:40:01.420Z,83.76
2018-12-09T12:44:57.469Z,83.51
2018-12-09T12:49:53.845Z,84.10
2018-12-09T12:54:50.601Z,84.81
2018-12-09T12:59:46.638Z,85.22
2018-12-09T13:04:42.672Z,85.50
2018-12-09T13:09:38.733Z,85.49
2018-12-09T13:14:34.795Z,84.89
2018-12-09T13:19:30.858Z,84.82
2018-12-09T13:24:32.611Z,84.67
2018-12-09T13:29:28.813Z,84.60
2018-12-09T13:34:25.020Z,85.22
2018-12-09T13:39:22.276Z,84.73
2018-12-09T13:44:18.376Z,85.92
2018-12-09T13:49:14.405Z,85.37
2018-12-09T13:54:14.508Z,85.83
2018-12-09T13:59:10.678Z,85.15
2018-12-09T14:04:06.712Z,85.43
2018-12-09T14:09:05.093Z,84.88
2018-12-09T14:14:01.143Z,85.20
2018-12-09T14:18:57.222Z,86.37
2018-12-09T14:23:53.269Z,88.21
2018-12-09T14:28:49.349Z,89.38
2018-12-09T14:33:45.396Z,88.35
2018-12-09T14:38:41.454Z,88.01
2018-12-09T14:43:37.546Z,87.80
2018-12-09T14:48:33.620Z,88.20
2018-12-09T14:53:29.680Z,89.75
2018-12-09T14:58:25.734Z,89.17
2018-12-09T15:03:21.802Z,88.89
2018-12-09T15:08:17.892Z,88.14
2018-12-09T15:13:14.142Z,87.85
2018-12-09T15:18:10.632Z,87.26
2018-12-09T15:23:06.711Z,88.63
2018-12-09T15:28:02.793Z,88.12
2018-12-09T15:32:59.569Z,89.21
2018-12-09T15:37:55.605Z,90.05
2018-12-09T15:42:51.634Z,88.73
2018-12-09T15:47:48.018Z,88.45
2018-12-09T15:52:44.319Z,87.03
2018-12-09T15:57:40.844Z,88.15
2018-12-09T16:02:37.601Z,88.70
2018-12-09T16:07:33.958Z,89.08
2018-12-09T16:12:30.402Z,89.33
2018-12-09T16:17:26.867Z,89.12
2018-12-09T16:22:22.902Z,87.60
2018-12-09T16:27:18.942Z,87.25
2018-12-09T16:32:17.807Z,86.59
2018-12-09T16:37:14.285Z,86.30
2018-12-09T16:42:10.401Z,86.05
2018-12-09T16:47:06.438Z,86.14
2018-12-09T16:52:02.488Z,85.84
2018-12-09T16:56:58.509Z,85.78
2018-12-09T17:01:54.563Z,86.70
2018-12-09T17:06:50.668Z,86.86
2018-12-09T17:11:46.689Z,87.76
2018-12-09T17:16:42.729Z,87.92
2018-12-09T17:21:38.760Z,88.18
2018-12-09T17:26:34.798Z,88.61
2018-12-09T17:31:30.833Z,89.29
2018-12-09T17:36:26.881Z,90.01
2018-12-09T17:41:25.160Z,90.03
2018-12-09T17:46:20.941Z,90.08
2018-12-09T17:51:16.961Z,89.88
2018-12-09T17:56:13.001Z,89.08
2018-12-09T18:01:11.049Z,88.92
2018-12-09T18:06:07.147Z,88.30
2018-12-09T18:11:03.621Z,87.75
2018-12-09T18:16:01.478Z,87.56
2018-12-09T18:21:07.750Z,87.58
2018-12-09T18:26:03.769Z,87.71
2018-12-09T18:30:59.949Z,87.44
2018-12-09T18:35:55.978Z,87.55
2018-12-09T18:40:52.010Z,87.57
2018-12-09T18:45:48.029Z,87.50
2018-12-09T18:50:45.365Z,87.07
2018-12-09T18:55:41.393Z,87.08
2018-12-09T19:00:37.425Z,86.01
2018-12-09T19:05:33.458Z,84.88
2018-12-09T19:10:29.482Z,83.25
2018-12-09T19:15:25.494Z,81.63
2018-12-09T19:20:21.531Z,81.03
2018-12-09T19:25:17.569Z,81.01
2018-12-09T19:30:13.591Z,81.23
2018-12-09T19:35:09.580Z,81.61
2018-12-09T19:40:05.593Z,82.69
2018-12-09T19:45:01.717Z,83.33
2018-12-09T19:49:57.770Z,84.44
2018-12-09T19:54:53.873Z,84.97
2018-12-09T19:59:49.888Z,85.44
2018-12-09T20:04:46.921Z,85.67
2018-12-09T20:09:43.185Z,85.70
2018-12-09T20:14:39.196Z,85.41
2018-12-09T20:19:35.261Z,84.81
2018-12-09T20:24:31.307Z,84.11
2018-12-09T20:29:27.320Z,82.83
2018-12-09T20:34:23.347Z,82.34
2018-12-09T20:39:19.891Z,81.98
2018-12-09T20:44:15.933Z,81.76
2018-12-09T20:49:11.969Z,81.28
2018-12-09T20:54:07.966Z,82.47
2018-12-09T20:59:03.996Z,82.67
2018-12-09T21:04:00.017Z,82.69
2018-12-09T21:08:56.031Z,83.03
2018-12-09T21:13:52.147Z,83.06
2018-12-09T21:18:48.194Z,82.42
2018-12-09T21:23:44.322Z,81.21
2018-12-09T21:28:40.345Z,80.94
2018-12-09T21:33:36.598Z,80.64
2018-12-09T21:38:32.758Z,79.52
2018-12-09T21:43:28.779Z,79.47
2018-12-09T21:48:24.795Z,79.55
2018-12-09T21:53:20.821Z,79.37
2018-12-09T21:58:16.853Z,79.99
2018-12-09T22:03:12.890Z,79.75
2018-12-09T22:08:08.941Z,79.78
2018-12-09T22:13:04.953Z,79.61
2018-12-09T22:18:00.994Z,79.84
2018-12-09T22:22:57.013Z,79.39
2018-12-09T22:27:53.050Z,80.27
2018-12-09T22:32:49.077Z,79.92
2018-12-09T22:37:45.120Z,79.99
2018-12-09T22:42:41.141Z,79.93
2018-12-09T22:47:37.166Z,80.09
2018-12-09T22:52:33.277Z,80.35
2018-12-09T22:57:29.318Z,80.92
2018-12-09T23:02:31.930Z,80.76
2018-12-09T23:07:33.952Z,80.90
2018-12-09T23:12:30.073Z,80.89
2018-12-09T23:17:26.090Z,80.56
2018-12-09T23:22:22.105Z,81.64
2018-12-09T23:27:18.121Z,81.75
2018-12-09T23:32:18.060Z,81.54
2018-12-09T23:37:14.089Z,82.24
2018-12-09T23:42:10.382Z,82.54
2018-12-09T23:47:06.393Z,82.99
2018-12-09T23:52:02.539Z,83.36
2018-12-09T23:56:58.561Z,83.00
